Time;durP1;ratioP1;P1;durP2;ratioP2;P2;SDS_P1;SDS_P2;PMS_P1;PMS_P2;Temp;Humidity;BMP_temperature;BMP_pressure;BME280_temperature;BME280_humidity;BME280_pressure;Samples;Min_cycle;Max_cycle;Signal;HPM_P1;HPM_P2
2021/11/20 00:00:38;;;;;;;14.52;8.73;;;;;;;6.45;67.04;95997.25;5006669;28;20045;-76
2021/11/20 00:03:04;;;;;;;15.30;8.63;;;;;;;6.36;67.60;96002.41;5006352;28;20021;-76
2021/11/20 00:05:32;;;;;;;16.77;9.48;;;;;;;6.33;67.86;95993.84;5006205;28;20034;-75
2021/11/20 00:07:58;;;;;;;13.18;8.95;;;;;;;6.29;68.11;95999.44;5005554;28;20036;-77
2021/11/20 00:10:26;;;;;;;15.02;8.95;;;;;;;6.23;67.95;96007.13;4984504;28;20034;-74
2021/11/20 00:12:51;;;;;;;16.30;9.00;;;;;;;6.16;69.12;95988.19;4970286;28;20026;-77
2021/11/20 00:15:20;;;;;;;17.77;8.93;;;;;;;6.18;69.13;95996.88;4993440;28;20120;-78
2021/11/20 00:17:45;;;;;;;13.48;8.48;;;;;;;6.14;69.44;95988.31;5005729;28;20029;-75
2021/11/20 00:20:12;;;;;;;13.98;9.65;;;;;;;6.18;68.96;95988.88;5004212;28;20030;-77
2021/11/20 00:22:39;;;;;;;15.95;10.05;;;;;;;6.21;69.14;95987.78;5006854;28;20476;-75
2021/11/20 00:25:21;;;;;;;15.18;9.70;;;;;;;6.23;69.03;95983.16;5004310;28;20048;-76
2021/11/20 00:27:47;;;;;;;13.30;9.93;;;;;;;6.16;69.04;95989.03;5005606;28;20034;-77
2021/11/20 00:30:16;;;;;;;15.05;8.88;;;;;;;6.14;69.79;95982.16;5006650;28;20053;-75
2021/11/20 00:32:50;;;;;;;15.15;9.60;;;;;;;6.15;69.53;95989.16;5005377;28;20100;-77
2021/11/20 00:35:18;;;;;;;16.83;9.85;;;;;;;6.15;70.44;95989.16;5005854;28;20070;-76
2021/11/20 00:37:44;;;;;;;15.68;9.80;;;;;;;6.13;70.59;96001.75;5005958;28;20038;-77
2021/11/20 00:40:17;;;;;;;19.25;10.25;;;;;;;6.13;70.35;96007.09;5005153;28;20033;-77
2021/11/20 00:42:43;;;;;;;14.45;9.93;;;;;;;6.18;69.82;95992.41;4988853;28;20037;-77
2021/11/20 00:45:09;;;;;;;17.60;9.80;;;;;;;6.21;69.94;95999.28;5005839;28;20523;-76
2021/11/20 00:47:35;;;;;;;14.60;9.98;;;;;;;6.24;69.94;96007.00;5005444;28;20033;-77
2021/11/20 00:50:01;;;;;;;17.40;9.85;;;;;;;6.23;69.98;95997.31;5004825;28;20389;-76
2021/11/20 00:52:28;;;;;;;16.52;9.63;;;;;;;6.29;70.07;96001.25;5005606;28;20462;-75
2021/11/20 00:54:53;;;;;;;17.05;9.82;;;;;;;6.32;69.84;96000.16;5005174;28;20459;-77
2021/11/20 00:57:19;;;;;;;19.65;10.90;;;;;;;6.32;70.01;96008.97;5005253;28;20037;-77
2021/11/20 00:59:44;;;;;;;19.58;9.90;;;;;;;6.33;69.59;96002.69;5006025;28;20022;-76
2021/11/20 01:02:10;;;;;;;14.07;9.73;;;;;;;6.34;69.81;95996.38;5006000;28;20030;-77
2021/11/20 01:04:36;;;;;;;14.43;10.20;;;;;;;6.37;69.69;95993.44;5006544;28;20026;-75
2021/11/20 01:07:01;;;;;;;14.10;9.13;;;;;;;6.36;69.87;95996.22;5003894;28;20038;-76
2021/11/20 01:09:30;;;;;;;13.45;8.95;;;;;;;6.41;70.17;95986.00;5005088;28;20038;-76
2021/11/20 01:11:59;;;;;;;13.10;8.95;;;;;;;6.43;69.62;95986.72;5004216;28;20030;-75
2021/11/20 01:14:25;;;;;;;14.80;10.35;;;;;;;6.48;69.50;95987.13;5006547;28;20594;-77
2021/11/20 01:16:51;;;;;;;13.95;9.10;;;;;;;6.48;70.08;95989.78;5005541;28;20489;-79
2021/11/20 01:19:16;;;;;;;11.88;8.82;;;;;;;6.50;69.65;95989.66;4988092;28;20037;-75
2021/11/20 01:21:42;;;;;;;14.77;9.90;;;;;;;6.50;70.11;95982.50;5008123;28;20030;-77
2021/11/20 01:24:08;;;;;;;14.23;9.38;;;;;;;6.58;69.68;95997.00;5007583;28;20026;-76
2021/11/20 01:26:33;;;;;;;14.75;8.85;;;;;;;6.59;69.86;96001.31;5009039;28;20022;-76
2021/11/20 01:28:59;;;;;;;13.10;8.98;;;;;;;6.60;70.07;95998.53;5008100;28;20660;-77
2021/11/20 01:31:26;;;;;;;14.75;9.80;;;;;;;6.61;69.97;95994.88;5008854;28;20034;-78
2021/11/20 01:33:51;;;;;;;14.55;8.80;;;;;;;6.68;69.93;95997.81;5007734;28;20030;-76
2021/11/20 01:36:19;;;;;;;14.75;9.43;;;;;;;6.70;69.14;95995.88;5008313;28;20026;-76
2021/11/20 01:38:46;;;;;;;14.15;8.95;;;;;;;6.79;69.30;95995.03;5009106;28;20026;-77
2021/11/20 01:41:12;;;;;;;15.48;9.63;;;;;;;6.80;69.63;96003.88;5007320;28;20026;-77
2021/11/20 01:43:38;;;;;;;15.05;9.68;;;;;;;6.85;68.85;95995.47;5009809;28;20044;-78
2021/11/20 01:46:06;;;;;;;14.20;9.05;;;;;;;6.87;68.85;95994.34;5008438;28;20022;-76
2021/11/20 01:48:38;;;;;;;13.32;9.23;;;;;;;6.86;69.13;95991.81;4992455;28;20519;-76
2021/11/20 01:51:14;;;;;;;11.40;8.85;;;;;;;6.85;69.43;95990.13;5008272;28;20069;-76
2021/11/20 01:53:58;;;;;;;12.90;8.95;;;;;;;6.85;69.45;95982.94;4999151;28;20026;-76
2021/11/20 01:56:47;;;;;;;12.02;8.13;;;;;;;6.85;69.56;95972.28;5009564;28;20034;-77
2021/11/20 01:59:28;;;;;;;11.65;8.00;;;;;;;6.83;69.34;95970.75;5006843;28;20056;-77
2021/11/20 02:01:59;;;;;;;12.15;8.48;;;;;;;6.77;69.96;95989.00;5008062;28;20432;-76
2021/11/20 02:04:43;;;;;;;12.52;8.15;;;;;;;6.67;70.22;95972.97;5007131;28;20030;-77
2021/11/20 02:07:13;;;;;;;11.63;8.43;;;;;;;6.74;70.51;95978.59;4993136;28;20601;-77
2021/11/20 02:09:53;;;;;;;14.93;8.57;;;;;;;6.71;70.23;95967.38;5007610;28;20496;-77
2021/11/20 02:12:24;;;;;;;11.70;8.10;;;;;;;6.76;70.43;95970.47;4990815;28;20045;-77
2021/11/20 02:14:50;;;;;;;14.10;9.07;;;;;;;6.74;70.38;95961.78;5008112;28;20411;-77
2021/11/20 02:17:32;;;;;;;11.90;7.97;;;;;;;6.71;70.66;95968.22;5007835;28;20026;-78
2021/11/20 02:20:00;;;;;;;12.93;8.10;;;;;;;6.71;70.35;95952.22;5008400;28;20562;-77
2021/11/20 02:22:40;;;;;;;12.35;8.65;;;;;;;6.70;70.77;95961.22;4991539;28;20034;-76
2021/11/20 02:25:06;;;;;;;10.93;7.50;;;;;;;6.72;70.69;95959.25;5006128;28;20119;-77
2021/11/20 02:27:33;;;;;;;10.65;7.53;;;;;;;6.72;70.92;95953.94;5008897;28;20605;-76
2021/11/20 02:30:34;;;;;;;14.05;7.60;;;;;;;6.74;70.54;95953.78;5007138;28;20462;-75
2021/11/20 02:33:04;;;;;;;12.73;8.30;;;;;;;6.77;70.65;95953.50;5005938;28;20120;-78
2021/11/20 02:35:35;;;;;;;13.73;7.75;;;;;;;6.78;70.45;95950.69;5007528;28;20301;-76
2021/11/20 02:38:01;;;;;;;11.60;8.30;;;;;;;6.83;70.33;95954.75;5007674;28;20029;-77
2021/11/20 02:40:27;;;;;;;12.27;8.25;;;;;;;6.83;70.65;95960.09;5008444;28;20030;-77
2021/11/20 02:42:52;;;;;;;11.35;7.97;;;;;;;6.87;70.10;95956.16;4989602;28;20022;-75
2021/11/20 02:45:29;;;;;;;12.25;8.05;;;;;;;6.86;70.11;95951.81;5007296;28;20037;-75
2021/11/20 02:47:55;;;;;;;12.60;7.78;;;;;;;6.89;70.14;95944.38;5006719;28;20021;-77
2021/11/20 02:50:37;;;;;;;11.55;8.02;;;;;;;6.89;70.22;95935.53;5006068;28;20491;-76
2021/11/20 02:53:03;;;;;;;11.18;7.75;;;;;;;6.88;70.52;95931.19;5008501;28;20535;-77
2021/11/20 02:55:28;;;;;;;14.18;7.28;;;;;;;6.87;70.42;95934.81;5007127;28;20037;-77
2021/11/20 02:57:54;;;;;;;12.43;7.88;;;;;;;6.91;70.24;95930.91;5008147;28;20030;-78
2021/11/20 03:00:19;;;;;;;10.68;7.60;;;;;;;6.91;70.29;95937.09;4989503;28;20385;-77
2021/11/20 03:02:45;;;;;;;11.45;7.40;;;;;;;6.91;70.58;95931.75;5007828;28;20030;-77
2021/11/20 03:05:11;;;;;;;10.85;7.60;;;;;;;6.86;70.71;95935.81;4989749;28;20022;-76
2021/11/20 03:07:36;;;;;;;16.02;8.30;;;;;;;6.91;70.56;95928.22;5007702;28;20040;-77
2021/11/20 03:10:04;;;;;;;12.73;8.05;;;;;;;6.93;70.29;95935.09;5006853;28;20104;-77
2021/11/20 03:12:29;;;;;;;11.02;7.97;;;;;;;6.94;70.28;95927.94;5005579;28;20378;-78
2021/11/20 03:14:55;;;;;;;10.82;7.80;;;;;;;6.86;71.03;95935.81;5008010;28;20559;-75
2021/11/20 03:17:20;;;;;;;11.60;7.70;;;;;;;6.85;71.04;95934.97;5005124;28;20404;-77
2021/11/20 03:19:47;;;;;;;12.38;8.02;;;;;;;6.88;71.20;95931.19;5008008;28;20021;-78
2021/11/20 03:22:25;;;;;;;14.57;9.55;;;;;;;6.91;70.89;95936.22;5004814;28;20123;-78
2021/11/20 03:24:50;;;;;;;12.25;8.40;;;;;;;6.88;71.27;95928.53;5006208;28;20123;-77
2021/11/20 03:27:16;;;;;;;11.60;7.95;;;;;;;6.90;71.32;95924.72;5007317;28;20033;-76
2021/11/20 03:29:42;;;;;;;11.60;8.30;;;;;;;6.90;70.92;95921.22;5006459;28;20056;-77
2021/11/20 03:32:07;;;;;;;12.23;7.60;;;;;;;6.90;70.79;95945.22;5007580;28;20033;-77
2021/11/20 03:34:33;;;;;;;12.15;8.13;;;;;;;6.88;71.09;95947.19;5006508;28;20030;-76
2021/11/20 03:36:59;;;;;;;12.93;8.02;;;;;;;6.92;71.10;95936.09;5006578;28;20026;-77
2021/11/20 03:39:25;;;;;;;15.57;8.23;;;;;;;6.95;70.72;95936.81;5004690;28;20029;-76
2021/11/20 03:41:50;;;;;;;12.60;8.32;;;;;;;6.98;70.39;95932.00;5007370;28;20657;-77
2021/11/20 03:44:16;;;;;;;11.30;8.02;;;;;;;7.09;70.49;95935.50;5004985;28;20034;-76
2021/11/20 03:46:42;;;;;;;11.88;8.13;;;;;;;7.08;70.11;95925.84;5006727;28;20033;-77
2021/11/20 03:49:07;;;;;;;12.45;8.32;;;;;;;7.08;70.11;95937.31;5005871;28;20511;-78
2021/11/20 03:51:33;;;;;;;13.50;8.80;;;;;;;7.00;70.29;95935.38;4988183;28;20026;-75
2021/11/20 03:53:58;;;;;;;13.90;8.15;;;;;;;7.05;70.42;95941.13;5007513;28;20471;-75
2021/11/20 03:56:24;;;;;;;12.85;8.20;;;;;;;7.07;70.07;95937.47;5005897;28;20034;-77
2021/11/20 03:58:49;;;;;;;10.95;7.82;;;;;;;7.06;70.11;95933.97;4989867;28;20030;-77
2021/11/20 04:01:19;;;;;;;12.57;8.80;;;;;;;7.03;70.27;95913.75;5005123;28;20104;-78
2021/11/20 04:03:46;;;;;;;12.50;8.23;;;;;;;7.01;70.61;95926.38;4987032;28;20070;-78
2021/11/20 04:06:13;;;;;;;14.95;8.60;;;;;;;7.01;70.30;95934.38;4989130;28;20037;-77
2021/11/20 04:08:40;;;;;;;13.60;8.50;;;;;;;7.04;70.06;95939.44;5005646;28;20381;-76
2021/11/20 04:11:05;;;;;;;11.38;8.00;;;;;;;7.05;70.20;95946.47;5007425;28;20029;-78
2021/11/20 04:13:31;;;;;;;14.27;8.20;;;;;;;7.11;69.83;95938.88;5004322;28;20033;-77
2021/11/20 04:15:56;;;;;;;9.75;8.18;;;;;;;7.15;69.76;95940.28;5007458;28;20034;-77
2021/11/20 04:18:22;;;;;;;11.80;7.90;;;;;;;7.11;69.79;95947.72;5004730;28;20475;-77
2021/11/20 04:20:47;;;;;;;12.68;8.38;;;;;;;7.15;69.45;95945.59;5006014;28;20033;-77
2021/11/20 04:23:13;;;;;;;12.57;7.95;;;;;;;7.15;69.67;95940.28;5006342;28;20033;-77
2021/11/20 04:25:39;;;;;;;13.40;8.38;;;;;;;7.21;69.10;95942.38;5006218;28;20480;-76
2021/11/20 04:28:04;;;;;;;11.57;7.55;;;;;;;7.16;69.27;95956.13;5006593;28;20061;-78
2021/11/20 04:30:30;;;;;;;12.43;8.00;;;;;;;7.18;69.33;95953.31;5003866;28;20045;-77
2021/11/20 04:32:55;;;;;;;11.23;7.47;;;;;;;7.21;69.13;95953.03;5005854;28;20022;-77
2021/11/20 04:35:22;;;;;;;13.38;8.50;;;;;;;7.22;68.87;95954.72;5005409;28;20041;-77
2021/11/20 04:37:48;;;;;;;16.75;8.43;;;;;;;7.24;68.78;95952.75;5005473;28;20033;-79
2021/11/20 04:40:14;;;;;;;15.88;8.70;;;;;;;7.24;68.77;95947.41;5006061;28;20029;-80
2021/11/20 04:42:39;;;;;;;14.68;7.85;;;;;;;7.28;68.37;95940.81;4988393;28;20030;-77
2021/11/20 04:45:05;;;;;;;12.38;8.18;;;;;;;7.28;68.30;95932.81;5006544;28;20500;-78
2021/11/20 04:47:31;;;;;;;15.18;7.28;;;;;;;7.24;68.53;95934.06;5006053;28;20049;-78
2021/11/20 04:49:56;;;;;;;13.80;7.25;;;;;;;7.24;68.40;95920.72;5006270;28;20026;-77
2021/11/20 04:52:21;;;;;;;10.93;7.10;;;;;;;7.24;68.48;95915.41;5003995;28;20099;-79
2021/11/20 04:54:47;;;;;;;14.80;7.82;;;;;;;7.19;68.38;95917.66;5005404;28;20037;-77
2021/11/20 04:57:12;;;;;;;11.45;6.32;;;;;;;7.20;68.81;95914.00;5008298;28;20029;-77
2021/11/20 04:59:38;;;;;;;11.05;7.30;;;;;;;7.16;68.71;95920.59;5010324;28;20033;-76
2021/11/20 05:02:04;;;;;;;12.07;7.05;;;;;;;7.15;68.40;95916.25;5009870;28;20033;-77
2021/11/20 05:04:31;;;;;;;13.88;7.57;;;;;;;7.09;68.77;95915.03;5009558;28;20929;-78
2021/11/20 05:06:57;;;;;;;13.98;7.50;;;;;;;7.14;68.36;95903.91;5008892;28;20026;-78
2021/11/20 05:09:22;;;;;;;10.85;7.60;;;;;;;7.16;68.74;95901.94;5009440;28;20041;-78
2021/11/20 05:11:48;;;;;;;10.55;6.82;;;;;;;7.18;68.55;95907.97;5010511;28;20029;-78
2021/11/20 05:14:14;;;;;;;11.43;6.80;;;;;;;7.16;68.67;95917.94;5007572;28;20037;-78
2021/11/20 05:16:39;;;;;;;10.20;6.88;;;;;;;7.19;68.59;95928.31;5010107;28;20110;-78
2021/11/20 05:19:05;;;;;;;9.60;6.55;;;;;;;7.27;68.34;95924.97;5007487;28;20033;-77
2021/11/20 05:21:31;;;;;;;10.60;7.30;;;;;;;7.29;68.00;95923.81;5009976;28;20026;-77
2021/11/20 05:23:56;;;;;;;9.88;7.05;;;;;;;7.26;68.45;95932.09;5009655;28;20412;-77
2021/11/20 05:26:22;;;;;;;9.57;6.68;;;;;;;7.31;68.26;95934.34;5009760;28;20018;-77
2021/11/20 05:29:04;;;;;;;12.15;7.82;;;;;;;7.34;68.21;95931.38;5009503;28;20054;-77
2021/11/20 05:31:30;;;;;;;10.60;6.78;;;;;;;7.41;68.00;95937.00;5008940;28;20120;-78
2021/11/20 05:33:56;;;;;;;9.88;7.10;;;;;;;7.41;67.96;95931.66;5009929;28;20512;-77
2021/11/20 05:36:26;;;;;;;13.50;7.22;;;;;;;7.42;67.93;95939.50;5009234;28;20022;-78
2021/11/20 05:38:52;;;;;;;10.85;6.88;;;;;;;7.47;67.83;95931.06;5007919;28;20453;-78
2021/11/20 05:41:17;;;;;;;11.68;7.82;;;;;;;7.48;67.73;95937.25;5009542;28;20049;-77
2021/11/20 05:43:43;;;;;;;12.48;7.82;;;;;;;7.52;67.65;95947.50;5009207;28;20037;-77
2021/11/20 05:46:12;;;;;;;12.27;6.78;;;;;;;7.53;67.72;95954.50;5009030;28;20030;-78
2021/11/20 05:48:38;;;;;;;11.32;7.25;;;;;;;7.54;67.81;95948.16;5007000;28;20467;-76
2021/11/20 05:51:03;;;;;;;12.52;7.38;;;;;;;7.53;67.60;95961.66;5008339;28;20033;-78
2021/11/20 05:53:29;;;;;;;11.52;7.78;;;;;;;7.58;67.77;95958.59;5008627;28;20034;-80
2021/11/20 05:55:55;;;;;;;11.25;6.88;;;;;;;7.59;67.63;95965.59;5009127;28;20025;-78
2021/11/20 05:58:21;;;;;;;11.15;7.75;;;;;;;7.61;67.57;95960.97;5008856;28;20484;-78
2021/11/20 06:00:52;;;;;;;10.13;7.05;;;;;;;7.62;67.47;95952.81;5007539;28;20040;-76
2021/11/20 06:03:18;;;;;;;11.13;7.38;;;;;;;7.62;67.32;95954.63;5005844;28;20455;-77
2021/11/20 06:05:43;;;;;;;10.23;7.53;;;;;;;7.60;67.57;95954.78;5006755;28;20026;-76
2021/11/20 06:08:09;;;;;;;9.32;7.18;;;;;;;7.47;68.12;95952.44;5007078;28;20473;-77
2021/11/20 06:10:35;;;;;;;10.45;6.53;;;;;;;7.51;67.89;95959.13;5006020;28;20445;-77
2021/11/20 06:13:03;;;;;;;13.23;7.00;;;;;;;7.51;68.09;95958.31;5007412;28;20057;-78
2021/11/20 06:15:29;;;;;;;12.20;7.13;;;;;;;7.49;68.02;95962.97;5006022;28;20100;-76
2021/11/20 06:17:54;;;;;;;10.20;7.63;;;;;;;7.53;67.92;95961.66;5006404;28;20530;-77
2021/11/20 06:20:20;;;;;;;9.43;6.90;;;;;;;7.57;67.80;95959.56;5007479;28;20483;-77
2021/11/20 06:22:45;;;;;;;11.43;6.97;;;;;;;7.61;67.76;95963.63;5007655;28;20033;-77
2021/11/20 06:25:11;;;;;;;10.73;7.03;;;;;;;7.60;67.87;95961.94;5007183;28;20030;-77
2021/11/20 06:27:36;;;;;;;10.20;6.47;;;;;;;7.66;67.44;95962.19;5006348;28;20384;-78
2021/11/20 06:30:03;;;;;;;9.90;7.30;;;;;;;7.66;67.34;95951.53;4988192;28;20430;-79
2021/11/20 06:32:29;;;;;;;10.68;7.07;;;;;;;7.69;67.43;95954.91;4990910;28;20029;-77
2021/11/20 06:34:55;;;;;;;8.73;6.63;;;;;;;7.73;66.96;95953.59;5005342;28;20105;-78
2021/11/20 06:37:20;;;;;;;8.18;6.50;;;;;;;7.77;66.65;95958.50;5005780;28;20432;-78
2021/11/20 06:39:46;;;;;;;11.77;6.32;;;;;;;7.78;66.65;95959.34;5005979;28;20033;-76
2021/11/20 06:42:11;;;;;;;10.43;6.65;;;;;;;7.82;66.61;95973.25;5007352;28;20037;-79
2021/11/20 06:44:37;;;;;;;9.23;5.88;;;;;;;7.88;66.44;95975.34;5000874;28;20034;-77
2021/11/20 06:47:02;;;;;;;12.85;6.53;;;;;;;7.88;66.07;95972.66;5002850;28;20034;-77
2021/11/20 06:49:28;;;;;;;10.18;6.88;;;;;;;7.94;66.12;95969.41;4981421;28;20555;-77
2021/11/20 06:51:53;;;;;;;9.40;6.18;;;;;;;7.95;66.26;95968.41;5006465;28;20034;-77
2021/11/20 06:54:19;;;;;;;9.57;6.70;;;;;;;7.98;66.02;95964.63;5004726;28;20034;-78
2021/11/20 06:56:52;;;;;;;9.23;6.13;;;;;;;8.00;65.67;95965.28;5006381;28;20515;-78
2021/11/20 07:01:51;;;;;;;8.98;6.22;;;;;;;8.01;65.46;95957.13;5005664;28;20026;-78
2021/11/20 07:04:24;;;;;;;10.68;6.45;;;;;;;7.99;65.52;95977.81;5005810;28;20117;-79
2021/11/20 07:06:56;;;;;;;9.32;6.47;;;;;;;7.99;65.51;95960.94;5004821;28;20648;-78
2021/11/20 07:09:21;;;;;;;8.02;6.25;;;;;;;7.95;65.63;95949.72;4990022;28;20044;-79
2021/11/20 07:11:46;;;;;;;11.65;6.90;;;;;;;7.93;65.43;95957.06;5021757;28;20394;-78
2021/11/20 07:14:12;;;;;;;8.50;6.60;;;;;;;7.75;66.19;95957.81;5005919;28;20460;-78
2021/11/20 07:16:38;;;;;;;13.13;6.80;;;;;;;7.71;66.30;95953.75;5006177;28;20029;-78
2021/11/20 07:19:03;;;;;;;11.38;6.45;;;;;;;7.78;66.00;95964.69;5004409;28;20030;-76
2021/11/20 07:21:29;;;;;;;9.60;6.63;;;;;;;7.82;66.18;95959.91;5007218;28;20156;-79
2021/11/20 07:23:57;;;;;;;9.77;6.72;;;;;;;7.77;66.17;95953.16;4995453;28;20040;-78
2021/11/20 07:26:22;;;;;;;10.15;7.20;;;;;;;7.78;66.24;95962.88;4985941;28;20440;-78
2021/11/20 07:28:49;;;;;;;9.23;6.50;;;;;;;7.78;66.31;95954.88;5003432;28;20061;-76
2021/11/20 07:31:14;;;;;;;9.48;6.40;;;;;;;7.82;65.97;95957.25;5005780;28;20084;-77
2021/11/20 07:33:40;;;;;;;9.18;5.85;;;;;;;7.86;65.72;95950.59;5005573;28;20022;-75
2021/11/20 07:36:05;;;;;;;10.50;6.68;;;;;;;7.79;66.33;95951.19;5005631;28;20038;-77
2021/11/20 07:38:34;;;;;;;11.48;7.15;;;;;;;7.77;66.08;95953.16;5005251;28;20040;-76
2021/11/20 07:41:00;;;;;;;10.00;6.72;;;;;;;7.85;65.67;95954.28;5002582;28;20515;-75
2021/11/20 07:43:25;;;;;;;9.40;6.45;;;;;;;7.97;65.58;95963.78;5004213;28;20022;-75
2021/11/20 07:45:51;;;;;;;9.93;6.70;;;;;;;8.06;65.02;95956.69;5003278;28;20029;-76
2021/11/20 07:48:18;;;;;;;9.18;6.45;;;;;;;8.02;65.31;95977.53;5006294;28;20041;-77
2021/11/20 07:50:45;;;;;;;8.40;6.43;;;;;;;8.11;65.02;95958.94;4986667;28;20063;-77
2021/11/20 07:53:11;;;;;;;7.95;6.10;;;;;;;8.22;64.52;95969.41;5003613;28;20088;-77
2021/11/20 07:55:36;;;;;;;10.05;6.97;;;;;;;8.35;64.15;95965.56;4990788;28;20028;-78
2021/11/20 07:58:03;;;;;;;7.82;6.30;;;;;;;8.39;63.82;95967.78;5004908;28;20065;-78
2021/11/20 08:00:28;;;;;;;9.02;6.32;;;;;;;8.67;63.40;95971.41;5003257;28;20044;-82
2021/11/20 08:02:53;;;;;;;8.68;5.80;;;;;;;9.09;62.11;95969.97;5005086;28;20022;-79
2021/11/20 08:05:19;;;;;;;11.68;6.60;;;;;;;9.36;61.55;95969.03;5006016;28;20030;-79
2021/11/20 08:07:45;;;;;;;8.93;5.97;;;;;;;9.38;60.77;95977.72;5004815;28;20057;-77
2021/11/20 08:10:14;;;;;;;10.13;6.07;;;;;;;9.62;59.95;95967.34;5004812;28;20037;-78
2021/11/20 08:12:40;;;;;;;10.57;6.35;;;;;;;9.76;59.47;95971.28;5004086;28;20030;-76
2021/11/20 08:15:07;;;;;;;11.25;5.70;;;;;;;9.85;59.39;95967.63;5002742;28;20412;-78
2021/11/20 08:17:33;;;;;;;9.60;5.68;;;;;;;10.06;58.43;95976.28;5004290;28;20484;-80
2021/11/20 08:19:58;;;;;;;9.85;5.22;;;;;;;9.92;57.82;95957.13;5004358;28;20037;-78
2021/11/20 08:22:23;;;;;;;6.70;5.43;;;;;;;9.93;58.07;95956.09;5006878;28;20018;-76
2021/11/20 08:24:49;;;;;;;8.25;5.47;;;;;;;10.00;57.74;95954.47;4999498;28;20026;-78
2021/11/20 08:27:15;;;;;;;11.32;5.03;;;;;;;10.20;56.73;95943.53;5000148;28;20033;-77
2021/11/20 08:29:41;;;;;;;10.73;5.60;;;;;;;10.36;56.13;95953.47;5000213;28;20049;-79
2021/11/20 08:32:07;;;;;;;6.38;5.00;;;;;;;10.57;55.83;95932.56;4998229;28;20330;-78
2021/11/20 08:34:33;;;;;;;10.45;5.45;;;;;;;10.61;55.88;95936.59;4989708;28;20412;-78
2021/11/20 08:37:01;;;;;;;9.27;5.47;;;;;;;10.68;55.37;95918.84;4999540;28;20034;-79
2021/11/20 08:39:28;;;;;;;7.68;5.55;;;;;;;10.55;55.79;95919.34;5006893;28;20520;-78
2021/11/20 08:41:53;;;;;;;12.52;5.78;;;;;;;10.68;55.45;95913.50;5004051;28;20045;-78
2021/11/20 08:44:19;;;;;;;11.43;5.88;;;;;;;10.45;56.08;95908.72;5006834;28;20022;-78
2021/11/20 08:46:44;;;;;;;9.18;5.97;;;;;;;10.09;57.62;95903.59;4984884;28;20023;-79
2021/11/20 08:49:11;;;;;;;7.20;5.80;;;;;;;9.82;58.25;95937.66;4998468;28;20061;-79
2021/11/20 08:51:37;;;;;;;12.80;6.47;;;;;;;9.57;59.28;95924.97;5004589;28;20312;-78
2021/11/20 08:54:03;;;;;;;13.65;6.25;;;;;;;9.50;60.38;95907.84;5004271;28;20037;-79
2021/11/20 08:56:28;;;;;;;13.57;6.40;;;;;;;9.36;60.86;95904.78;5005258;28;20026;-77
2021/11/20 08:58:54;;;;;;;8.80;6.65;;;;;;;9.33;61.65;95920.28;5004009;28;20400;-77
2021/11/20 09:01:42;;;;;;;12.30;6.95;;;;;;;9.38;61.58;95926.84;5006550;28;20030;-78
2021/11/20 09:04:28;;;;;;;12.20;6.90;;;;;;;9.49;61.34;95936.47;5006139;28;20437;-78
2021/11/20 09:06:53;;;;;;;8.45;6.78;;;;;;;9.51;61.47;95913.03;5004771;28;20486;-78
2021/11/20 09:09:33;;;;;;;9.32;6.10;;;;;;;9.39;61.36;95917.00;5006390;28;20852;-77
2021/11/20 09:12:29;;;;;;;10.45;6.60;;;;;;;9.42;61.81;95924.69;5003639;28;20038;-76
2021/11/20 09:15:04;;;;;;;9.10;6.55;;;;;;;9.34;61.67;95927.31;5006039;28;20034;-78
2021/11/20 09:17:30;;;;;;;9.98;6.30;;;;;;;9.36;61.65;95936.91;5006030;28;20030;-78
2021/11/20 09:19:55;;;;;;;9.80;6.03;;;;;;;9.35;62.02;95923.66;5005747;28;20408;-77
2021/11/20 09:22:21;;;;;;;9.75;5.93;;;;;;;9.26;62.52;95928.97;5005058;28;20048;-78
2021/11/20 09:24:46;;;;;;;8.07;6.38;;;;;;;9.22;62.14;95919.53;5004136;28;20026;-80
2021/11/20 09:27:12;;;;;;;7.93;5.97;;;;;;;9.22;62.22;95938.28;5006687;28;20096;-77
2021/11/20 09:29:38;;;;;;;10.73;6.47;;;;;;;9.15;62.76;95914.00;4971778;28;20143;-75
2021/11/20 09:32:03;;;;;;;13.02;6.20;;;;;;;9.15;62.54;95913.16;5010375;28;20022;-76
2021/11/20 09:34:29;;;;;;;9.32;6.03;;;;;;;9.15;62.75;95913.16;5019449;28;20037;-77
2021/11/20 09:36:56;;;;;;;10.30;5.95;;;;;;;9.18;63.14;95925.38;5002987;28;20041;-76
2021/11/20 09:39:23;;;;;;;8.65;6.03;;;;;;;9.17;62.94;95911.16;4999789;28;20041;-78
2021/11/20 09:41:57;;;;;;;12.15;6.00;;;;;;;9.25;62.58;95924.59;5005547;28;20061;-75
2021/11/20 09:44:23;;;;;;;8.55;5.80;;;;;;;9.36;62.79;95925.34;5010006;28;20030;-76
2021/11/20 09:46:52;;;;;;;10.25;5.95;;;;;;;9.34;62.90;95916.63;5007266;28;20029;-76
2021/11/20 09:49:26;;;;;;;11.73;6.60;;;;;;;9.40;62.55;95926.69;5008459;28;20525;-77
2021/11/20 09:51:54;;;;;;;7.20;6.13;;;;;;;9.42;62.87;95914.00;4978872;28;20030;-77
2021/11/20 09:54:27;;;;;;;13.88;6.55;;;;;;;9.39;62.72;95920.50;5006089;28;20117;-75
2021/11/20 09:57:22;;;;;;;13.68;7.05;;;;;;;9.33;63.50;95909.59;4994559;28;20037;-80
2021/11/20 09:59:56;;;;;;;11.80;6.05;;;;;;;9.37;63.21;95905.59;5009420;28;20129;-79
2021/11/20 10:02:40;;;;;;;10.23;6.15;;;;;;;9.34;63.65;95905.91;5006583;28;20022;-75
2021/11/20 10:05:08;;;;;;;8.63;6.07;;;;;;;9.26;63.45;95912.91;4998472;28;20026;-77
2021/11/20 10:07:45;;;;;;;13.40;7.03;;;;;;;9.19;64.04;95900.31;4989175;28;20493;-75
2021/11/20 10:10:47;;;;;;;15.05;7.10;;;;;;;9.25;63.96;95908.53;4986712;28;20034;-76
2021/11/20 10:13:27;;;;;;;10.35;6.80;;;;;;;9.26;63.74;95910.22;5002199;28;20046;-76
2021/11/20 10:16:13;;;;;;;9.25;6.57;;;;;;;9.22;63.90;95908.03;4972395;28;20074;-75
2021/11/20 10:18:57;;;;;;;9.30;6.57;;;;;;;9.21;64.13;95906.31;4972873;28;20030;-76
2021/11/20 10:22:04;;;;;;;10.40;6.85;;;;;;;9.17;64.43;95907.63;5008045;28;20045;-77
2021/11/20 10:24:38;;;;;;;11.48;6.78;;;;;;;9.14;64.22;95895.44;5003498;28;20066;-75
2021/11/20 10:27:12;;;;;;;13.35;7.50;;;;;;;9.18;64.18;95898.59;5007783;28;20386;-76
2021/11/20 10:30:06;;;;;;;11.05;7.35;;;;;;;9.19;64.27;95898.44;5006468;28;20069;-76
2021/11/20 10:32:31;;;;;;;;;;;;;;;9.09;64.74;95892.38;4999406;28;20084;-75
2021/11/20 10:35:00;;;;;;;9.18;6.75;;;;;;;9.12;64.72;95902.75;5000911;28;20420;-77
2021/11/20 10:37:33;;;;;;;11.38;7.05;;;;;;;9.16;64.88;95893.41;5005024;28;20216;-74
2021/11/20 10:40:02;;;;;;;10.07;7.25;;;;;;;9.06;65.17;95892.69;5005781;28;20080;-77
2021/11/20 10:42:30;;;;;;;10.00;7.00;;;;;;;9.06;64.60;95882.81;4988317;28;20030;-75
2021/11/20 10:45:18;;;;;;;14.15;8.25;;;;;;;9.00;65.05;95886.97;5004587;28;20427;-75
2021/11/20 10:47:56;;;;;;;15.35;8.45;;;;;;;9.00;65.17;95889.63;4993955;28;20034;-76
2021/11/20 10:50:35;;;;;;;9.88;7.95;;;;;;;8.95;65.39;95889.25;5004928;28;20417;-79
2021/11/20 10:53:32;;;;;;;19.05;7.82;;;;;;;9.00;65.45;95878.09;5006793;28;20054;-77
2021/11/20 10:56:24;;;;;;;12.98;9.15;;;;;;;8.97;65.76;95878.41;5002642;28;20048;-76
2021/11/20 10:58:59;;;;;;;16.10;8.50;;;;;;;9.03;65.37;95883.97;4995251;28;20475;-76
2021/11/20 11:01:45;;;;;;;14.15;8.00;;;;;;;9.10;65.04;95884.19;5005653;28;20037;-75
2021/11/20 11:04:39;;;;;;;11.20;8.05;;;;;;;8.98;65.20;95875.56;5004075;28;20038;-75
2021/11/20 11:07:11;;;;;;;12.27;7.63;;;;;;;9.00;65.34;95875.41;5004093;28;20029;-75
2021/11/20 11:09:47;;;;;;;14.65;8.07;;;;;;;8.99;65.12;95866.56;5004026;28;20472;-75
2021/11/20 11:12:31;;;;;;;12.60;8.63;;;;;;;8.97;65.74;95879.25;5003777;28;20065;-76
2021/11/20 11:15:08;;;;;;;14.85;9.82;;;;;;;9.00;65.52;95876.25;5006691;28;20484;-79
2021/11/20 11:17:53;;;;;;;11.65;8.93;;;;;;;8.99;65.64;95871.91;5004758;28;20030;-76
2021/11/20 11:20:46;;;;;;;14.73;9.10;;;;;;;9.01;65.24;95872.56;4990181;28;20084;-75
2021/11/20 11:23:14;;;;;;;10.15;7.55;;;;;;;9.03;65.06;95864.38;4988348;28;20037;-77
2021/11/20 11:25:57;;;;;;;11.07;7.72;;;;;;;9.08;64.60;95864.75;4999178;28;20087;-78
2021/11/20 11:28:54;;;;;;;10.50;7.65;;;;;;;9.09;64.54;95869.09;4986889;28;20037;-77
2021/11/20 11:31:26;;;;;;;10.10;7.15;;;;;;;9.13;64.84;95861.63;5001928;28;20038;-78
2021/11/20 11:34:28;;;;;;;10.20;8.43;;;;;;;9.14;64.93;95863.31;5005633;28;20038;-78
2021/11/20 11:37:12;;;;;;;11.35;7.93;;;;;;;9.17;64.49;95868.34;5012869;28;20464;-78
2021/11/20 11:39:43;;;;;;;12.98;8.38;;;;;;;9.24;64.91;95868.53;4997278;28;20037;-78
2021/11/20 11:42:11;;;;;;;12.23;9.80;;;;;;;9.28;64.48;95860.03;5006080;28;20041;-77
2021/11/20 11:44:55;;;;;;;10.93;8.02;;;;;;;9.34;63.73;95861.25;5003679;28;20038;-78
2021/11/20 11:47:47;;;;;;;9.95;7.70;;;;;;;9.34;63.85;95849.69;5001507;28;20037;-76